createdAt,value
2023-01-21T00:00:49.401Z,6.599999905
2023-01-21T00:01:50.759Z,7.099999905
2023-01-21T00:02:51.248Z,6.800000191
2023-01-21T00:03:51.700Z,7.199999809
2023-01-21T00:04:52.241Z,7.800000191
2023-01-21T00:05:52.687Z,7.699999809
2023-01-21T00:06:53.082Z,8.300000191
2023-01-21T00:07:53.472Z,6.400000095
2023-01-21T00:08:53.852Z,7.199999809
2023-01-21T00:09:54.322Z,6.599999905
2023-01-21T00:10:54.758Z,7.199999809
2023-01-21T00:11:55.925Z,8.5
2023-01-21T00:12:56.337Z,7.699999809
2023-01-21T00:13:56.723Z,6.5
2023-01-21T00:14:57.266Z,7.099999905
2023-01-21T00:15:57.787Z,9.5
2023-01-21T00:16:58.279Z,7.300000191
2023-01-21T00:17:58.755Z,7.199999809
2023-01-21T00:18:59.136Z,7.699999809
2023-01-21T00:19:59.673Z,6.5
2023-01-21T00:21:00.148Z,6.199999809
2023-01-21T00:22:01.469Z,9.100000381
2023-01-21T00:23:02.392Z,5.900000095
2023-01-21T00:24:34.039Z,7.599999905
2023-01-21T00:25:34.432Z,8.100000381
2023-01-21T00:26:34.971Z,7.599999905
2023-01-21T00:27:36.073Z,6.900000095
2023-01-21T00:28:36.496Z,7.300000191
2023-01-21T00:29:37.980Z,10.10000038
2023-01-21T00:30:38.397Z,8
2023-01-21T00:31:39.629Z,6.400000095
2023-01-21T00:32:39.961Z,9.699999809
2023-01-21T00:33:40.627Z,7.199999809
2023-01-21T00:34:41.235Z,6.5
2023-01-21T00:35:41.630Z,8
2023-01-21T00:36:42.179Z,6.300000191
2023-01-21T00:37:42.632Z,7.099999905
2023-01-21T00:38:43.150Z,5.300000191
2023-01-21T00:39:43.769Z,6.5
2023-01-21T00:40:44.184Z,8.399999619
2023-01-21T00:41:45.440Z,6.5
2023-01-21T00:42:45.955Z,6.199999809
2023-01-21T00:43:46.381Z,5.900000095
2023-01-21T00:44:46.960Z,6.699999809
2023-01-21T00:45:47.363Z,6.300000191
2023-01-21T00:46:47.769Z,6.099999905
2023-01-21T00:47:48.277Z,6.699999809
2023-01-21T00:48:48.680Z,7.400000095
2023-01-21T00:49:49.228Z,5.699999809
2023-01-21T00:50:49.716Z,7.900000095
2023-01-21T00:51:50.835Z,5.599999905
2023-01-21T00:52:51.252Z,6.099999905
2023-01-21T00:53:51.704Z,10
2023-01-21T00:54:52.110Z,7.099999905
2023-01-21T00:55:52.720Z,7.300000191
2023-01-21T00:56:53.117Z,6
2023-01-21T00:57:53.599Z,6
2023-01-21T00:58:54.198Z,6.099999905
2023-01-21T00:59:55.357Z,7.099999905
2023-01-21T01:00:56.001Z,6.699999809
2023-01-21T01:01:57.286Z,6.800000191
2023-01-21T01:02:57.899Z,4.900000095
2023-01-21T01:03:58.328Z,6.800000191
2023-01-21T01:04:58.981Z,6.199999809
2023-01-21T01:05:59.476Z,6.099999905
2023-01-21T01:06:59.963Z,6.699999809
2023-01-21T01:08:00.522Z,6
2023-01-21T01:09:00.883Z,5.900000095
2023-01-21T01:10:01.962Z,5.800000191
2023-01-21T01:11:33.611Z,7.199999809
2023-01-21T01:12:34.069Z,6.300000191
2023-01-21T01:13:34.489Z,5.800000191
2023-01-21T01:14:34.874Z,4.900000095
2023-01-21T01:15:35.494Z,5.900000095
2023-01-21T01:16:35.898Z,5.699999809
2023-01-21T01:17:36.425Z,5
2023-01-21T01:18:36.889Z,6.599999905
2023-01-21T01:19:37.280Z,5.699999809
2023-01-21T01:20:37.860Z,5.800000191
2023-01-21T01:21:39.079Z,7
2023-01-21T01:22:39.535Z,7
2023-01-21T01:23:40.097Z,7.099999905
2023-01-21T01:24:40.713Z,5.300000191
2023-01-21T01:25:41.272Z,5.300000191
2023-01-21T01:26:42.371Z,7
2023-01-21T01:27:42.217Z,5.800000191
2023-01-21T01:28:42.805Z,5.800000191
2023-01-21T01:29:44.055Z,5.699999809
2023-01-21T01:30:44.640Z,4.599999905
2023-01-21T01:31:45.736Z,7.199999809
2023-01-21T01:32:46.051Z,4.599999905
2023-01-21T01:33:46.499Z,4.800000191
2023-01-21T01:34:46.889Z,5.199999809
2023-01-21T01:35:47.436Z,6.900000095
2023-01-21T01:36:47.885Z,6.099999905
2023-01-21T01:37:48.457Z,5.900000095
2023-01-21T01:38:48.894Z,6
2023-01-21T01:39:49.275Z,5.800000191
2023-01-21T01:40:49.911Z,4.5
2023-01-21T01:41:51.075Z,7.099999905
2023-01-21T01:42:51.687Z,6.599999905
2023-01-21T01:43:52.109Z,5
2023-01-21T01:44:52.512Z,5
2023-01-21T01:45:53.013Z,5.199999809
2023-01-21T01:46:53.387Z,6.099999905
2023-01-21T01:47:53.853Z,6.400000095
2023-01-21T01:48:54.273Z,5.5
2023-01-21T01:49:54.669Z,5.199999809
2023-01-21T01:50:55.152Z,5.900000095
2023-01-21T01:51:56.076Z,5.699999809
2023-01-21T01:52:56.617Z,5
2023-01-21T01:53:57.074Z,5.300000191
2023-01-21T01:54:57.501Z,4.699999809
2023-01-21T01:55:58.093Z,5.199999809
2023-01-21T01:56:58.478Z,5.300000191
2023-01-21T01:57:59.147Z,5.099999905
2023-01-21T01:58:59.520Z,5
2023-01-21T01:59:59.940Z,6.099999905
2023-01-21T02:01:00.385Z,6.099999905
2023-01-21T02:02:02.123Z,5.300000191
2023-01-21T02:03:32.788Z,5.599999905
2023-01-21T02:04:33.339Z,7.699999809
2023-01-21T02:05:33.862Z,5.900000095
2023-01-21T02:06:34.265Z,4.800000191
2023-01-21T02:07:34.851Z,5
2023-01-21T02:08:35.282Z,5
2023-01-21T02:09:35.786Z,5.099999905
2023-01-21T02:10:36.293Z,5.400000095
2023-01-21T02:11:36.707Z,5.199999809
2023-01-21T02:12:37.939Z,4.199999809
2023-01-21T02:13:38.348Z,7.5
2023-01-21T02:14:38.855Z,5.099999905
2023-01-21T02:15:39.340Z,4.5
2023-01-21T02:16:39.766Z,5.099999905
2023-01-21T02:17:40.505Z,5.099999905
2023-01-21T02:18:40.949Z,4.699999809
2023-01-21T02:19:41.295Z,5.800000191
2023-01-21T02:20:41.948Z,5.099999905
2023-01-21T02:21:42.351Z,5.300000191
2023-01-21T02:22:43.961Z,6.099999905
2023-01-21T02:23:44.371Z,5.400000095
2023-01-21T02:24:44.761Z,5.199999809
2023-01-21T02:25:45.219Z,5.800000191
2023-01-21T02:26:45.689Z,4.900000095
2023-01-21T02:27:46.087Z,4.199999809
2023-01-21T02:28:46.516Z,4.699999809
2023-01-21T02:29:47.558Z,5
2023-01-21T02:30:48.196Z,4.699999809
2023-01-21T02:31:48.743Z,5.300000191
2023-01-21T02:32:49.780Z,4.5
2023-01-21T02:33:50.264Z,5.300000191
2023-01-21T02:34:50.654Z,4.699999809
2023-01-21T02:35:51.166Z,5.599999905
2023-01-21T02:36:51.673Z,4.5
2023-01-21T02:37:52.306Z,3.5
2023-01-21T02:38:52.786Z,6.300000191
2023-01-21T02:39:53.181Z,5
2023-01-21T02:40:53.815Z,5.599999905
2023-01-21T02:41:55.087Z,4.800000191
2023-01-21T02:42:55.656Z,6.5
2023-01-21T02:43:56.042Z,4
2023-01-21T02:44:56.553Z,5.199999809
2023-01-21T02:45:57.024Z,5.199999809
2023-01-21T02:46:57.492Z,4.699999809
2023-01-21T02:47:57.970Z,3.799999952
2023-01-21T02:48:58.439Z,5.599999905
2023-01-21T02:49:58.979Z,4.5
2023-01-21T02:50:59.430Z,5.199999809
2023-01-21T02:52:00.584Z,4.900000095
2023-01-21T02:53:31.309Z,4.599999905
2023-01-21T02:54:32.546Z,3.599999905
2023-01-21T02:55:33.105Z,4.300000191
2023-01-21T02:56:33.514Z,4.599999905
2023-01-21T02:57:33.979Z,3.099999905
2023-01-21T02:58:34.361Z,3.5
2023-01-21T02:59:34.753Z,4.300000191
2023-01-21T03:00:35.247Z,4.599999905
2023-01-21T03:01:35.719Z,5.599999905
2023-01-21T03:02:36.799Z,4.599999905
2023-01-21T03:03:37.454Z,4.5
2023-01-21T03:04:37.682Z,3.299999952
2023-01-21T03:05:38.256Z,5.800000191
2023-01-21T03:06:38.735Z,5.800000191
2023-01-21T03:07:39.179Z,6.699999809
2023-01-21T03:08:39.799Z,4.800000191
2023-01-21T03:09:40.205Z,4.5
2023-01-21T03:10:40.936Z,9.399999619
2023-01-21T03:11:41.381Z,4.199999809
2023-01-21T03:12:42.776Z,3.799999952
2023-01-21T03:13:43.280Z,4
2023-01-21T03:14:43.653Z,4
2023-01-21T03:15:44.074Z,5.099999905
2023-01-21T03:16:44.496Z,4.699999809
2023-01-21T03:17:44.922Z,4.099999905
2023-01-21T03:18:45.492Z,5.099999905
2023-01-21T03:19:45.932Z,3.900000095
2023-01-21T03:20:46.448Z,3.400000095
2023-01-21T03:21:46.888Z,4
2023-01-21T03:22:48.284Z,5.699999809
2023-01-21T03:23:48.782Z,4.5
2023-01-21T03:24:49.191Z,6.5
2023-01-21T03:25:49.667Z,4.699999809
2023-01-21T03:26:50.138Z,3.400000095
2023-01-21T03:27:50.632Z,4.5
2023-01-21T03:28:51.182Z,4.5
2023-01-21T03:29:51.597Z,4.400000095
2023-01-21T03:30:52.848Z,3.599999905
2023-01-21T03:31:53.341Z,3.400000095
2023-01-21T03:32:54.248Z,3.900000095
2023-01-21T03:33:54.898Z,3.200000048
2023-01-21T03:34:55.300Z,3.599999905
2023-01-21T03:35:55.704Z,4.400000095
2023-01-21T03:36:56.232Z,4.599999905
2023-01-21T03:37:56.606Z,3.900000095
2023-01-21T03:38:57.076Z,4
2023-01-21T03:39:57.481Z,4.199999809
2023-01-21T03:40:57.871Z,3.799999952
2023-01-21T03:41:58.458Z,3.5
2023-01-21T03:43:30.369Z,3.900000095
2023-01-21T03:44:30.987Z,3.299999952
2023-01-21T03:45:31.440Z,4.400000095
2023-01-21T03:46:31.938Z,3.900000095
2023-01-21T03:47:32.350Z,3.799999952
2023-01-21T03:48:32.745Z,4.400000095
2023-01-21T03:49:33.199Z,5
2023-01-21T03:50:33.646Z,4.5
2023-01-21T03:51:34.229Z,3.799999952
2023-01-21T03:52:35.553Z,4.300000191
2023-01-21T03:53:35.983Z,5.400000095
2023-01-21T03:54:36.557Z,3.799999952
2023-01-21T03:55:36.999Z,3.5
2023-01-21T03:56:37.571Z,3.900000095
2023-01-21T03:57:38.038Z,4.300000191
2023-01-21T03:58:38.474Z,9.899999619
2023-01-21T03:59:39.090Z,3.299999952
2023-01-21T04:00:40.147Z,3.900000095
2023-01-21T04:01:40.375Z,3.599999905
2023-01-21T04:02:41.542Z,2.700000048
2023-01-21T04:03:41.945Z,5
2023-01-21T04:04:42.457Z,6.199999809
2023-01-21T04:05:42.902Z,4
2023-01-21T04:06:43.311Z,4.900000095
2023-01-21T04:07:43.875Z,3.200000048
2023-01-21T04:08:44.367Z,3.200000048
2023-01-21T04:09:44.902Z,3.200000048
2023-01-21T04:10:45.517Z,3.400000095
2023-01-21T04:11:45.922Z,3.299999952
2023-01-21T04:12:46.530Z,3.299999952
2023-01-21T04:13:47.771Z,4.599999905
2023-01-21T04:14:48.320Z,4.199999809
2023-01-21T04:15:48.783Z,3.900000095
2023-01-21T04:16:49.174Z,5.5
2023-01-21T04:17:49.921Z,5
2023-01-21T04:18:50.356Z,3.200000048
2023-01-21T04:19:50.908Z,3.299999952
2023-01-21T04:20:51.313Z,3.299999952
2023-01-21T04:21:51.713Z,3.900000095
2023-01-21T04:22:53.038Z,3.900000095
2023-01-21T04:23:53.524Z,3.799999952
2023-01-21T04:24:54.120Z,3.599999905
2023-01-21T04:25:54.544Z,3.299999952
2023-01-21T04:26:54.944Z,3.400000095
2023-01-21T04:27:55.395Z,3.900000095
2023-01-21T04:28:55.882Z,3.599999905
2023-01-21T04:29:57.074Z,6
2023-01-21T04:30:57.533Z,4.400000095
2023-01-21T04:31:58.008Z,3.400000095
2023-01-21T04:32:59.043Z,3
2023-01-21T04:34:29.856Z,4.699999809
2023-01-21T04:35:30.289Z,3.5
2023-01-21T04:36:31.255Z,3.599999905
2023-01-21T04:37:31.876Z,4
2023-01-21T04:38:32.284Z,3.700000048
2023-01-21T04:39:32.783Z,4.599999905
2023-01-21T04:40:33.236Z,3.900000095
2023-01-21T04:41:33.680Z,3
2023-01-21T04:42:34.270Z,3.799999952
2023-01-21T04:43:35.278Z,5.5
2023-01-21T04:44:35.708Z,3.299999952
2023-01-21T04:45:36.305Z,3.900000095
2023-01-21T04:46:36.637Z,4.599999905
2023-01-21T04:47:37.206Z,3.200000048
2023-01-21T04:48:37.685Z,3.700000048
2023-01-21T04:49:38.106Z,3.099999905
2023-01-21T04:50:38.607Z,2.700000048
2023-01-21T04:51:40.039Z,3.700000048
2023-01-21T04:52:40.700Z,2.799999952
2023-01-21T04:53:41.899Z,4.400000095
2023-01-21T04:54:42.329Z,5.599999905
2023-01-21T04:55:42.726Z,6
2023-01-21T04:56:43.277Z,4.199999809
2023-01-21T04:57:43.666Z,4.300000191
2023-01-21T04:58:44.226Z,3.700000048
2023-01-21T04:59:44.739Z,4.300000191
2023-01-21T05:00:45.096Z,3.400000095
2023-01-21T05:01:45.665Z,3.400000095
2023-01-21T05:02:47.042Z,3.5
2023-01-21T05:03:47.595Z,3.700000048
2023-01-21T05:04:48.058Z,2.900000095
2023-01-21T05:05:48.451Z,2.599999905
2023-01-21T05:06:49.065Z,3.200000048
2023-01-21T05:07:49.487Z,3.5
2023-01-21T05:08:50.004Z,2.900000095
2023-01-21T05:09:50.436Z,2.799999952
2023-01-21T05:10:50.785Z,3.299999952
2023-01-21T05:11:51.264Z,4.099999905
2023-01-21T05:12:52.558Z,3.299999952
2023-01-21T05:13:53.042Z,2.5
2023-01-21T05:14:53.519Z,4
2023-01-21T05:15:53.953Z,2.599999905
2023-01-21T05:16:54.511Z,3
2023-01-21T05:17:54.910Z,3
2023-01-21T05:18:55.325Z,5.900000095
2023-01-21T05:19:55.918Z,3.700000048
2023-01-21T05:20:56.324Z,3
2023-01-21T05:21:56.845Z,3.5
2023-01-21T05:22:58.051Z,3.599999905
2023-01-21T05:23:58.864Z,2.700000048
2023-01-21T05:25:29.696Z,2.900000095
2023-01-21T05:26:30.089Z,4.099999905
2023-01-21T05:27:30.612Z,2.799999952
2023-01-21T05:28:31.148Z,2.200000048
2023-01-21T05:29:31.699Z,4
2023-01-21T05:30:32.062Z,2.299999952
2023-01-21T05:31:32.556Z,2.400000095
2023-01-21T05:32:32.831Z,5
2023-01-21T05:33:34.283Z,3.200000048
2023-01-21T05:34:34.713Z,3.900000095
2023-01-21T05:35:35.163Z,4.300000191
2023-01-21T05:36:35.589Z,3.599999905
2023-01-21T05:37:35.993Z,2.400000095
2023-01-21T05:38:36.466Z,3.5
2023-01-21T05:39:36.948Z,3.900000095
2023-01-21T05:40:37.602Z,2.700000048
2023-01-21T05:41:37.981Z,3.799999952
2023-01-21T05:42:38.504Z,3
2023-01-21T05:43:39.729Z,5.900000095
2023-01-21T05:44:40.237Z,3.099999905
2023-01-21T05:45:41.001Z,4.800000191
2023-01-21T05:46:41.406Z,2.700000048
2023-01-21T05:47:41.945Z,2.599999905
2023-01-21T05:48:42.349Z,3.200000048
2023-01-21T05:49:42.767Z,4.099999905
2023-01-21T05:50:43.297Z,4.199999809
2023-01-21T05:51:43.659Z,4.300000191
2023-01-21T05:52:44.171Z,2.900000095
2023-01-21T05:53:45.223Z,3.700000048
2023-01-21T05:55:00.650Z,2.700000048
2023-01-21T05:55:46.141Z,3
2023-01-21T05:56:46.535Z,4.900000095
2023-01-21T05:57:47.021Z,2.700000048
2023-01-21T05:58:47.394Z,3.700000048
2023-01-21T05:59:47.806Z,3.200000048
2023-01-21T06:00:48.266Z,3.299999952
2023-01-21T06:01:49.288Z,2.700000048
2023-01-21T06:02:49.904Z,3.700000048
2023-01-21T06:03:51.279Z,2.200000048
2023-01-21T06:04:51.797Z,3.599999905
2023-01-21T06:05:52.207Z,2.700000048
2023-01-21T06:06:52.699Z,2.700000048
2023-01-21T06:07:53.166Z,3.5
2023-01-21T06:08:53.560Z,2.299999952
2023-01-21T06:09:54.148Z,2.799999952
2023-01-21T06:10:54.556Z,2.599999905
2023-01-21T06:11:54.916Z,3.599999905
2023-01-21T06:12:55.315Z,2.599999905
2023-01-21T06:13:55.734Z,3.400000095
2023-01-21T06:14:56.847Z,2.799999952
2023-01-21T06:15:57.455Z,3.799999952
2023-01-21T06:16:57.726Z,3.200000048
2023-01-21T06:18:28.730Z,2.299999952
2023-01-21T06:19:29.139Z,3.299999952
2023-01-21T06:20:29.663Z,4.599999905
2023-01-21T06:21:30.135Z,4.300000191
2023-01-21T06:22:30.495Z,4.099999905
2023-01-21T06:23:32.013Z,3.299999952
2023-01-21T06:24:32.391Z,3.099999905
2023-01-21T06:25:32.939Z,3.900000095
2023-01-21T06:26:33.398Z,4.099999905
2023-01-21T06:27:33.727Z,6
2023-01-21T06:28:35.024Z,7.599999905
2023-01-21T06:29:35.396Z,3.799999952
2023-01-21T06:30:35.964Z,4.199999809
2023-01-21T06:31:37.156Z,4.400000095
2023-01-21T06:32:37.585Z,4.599999905
2023-01-21T06:33:38.527Z,4
2023-01-21T06:34:38.931Z,6.900000095
2023-01-21T06:35:39.335Z,5.5
2023-01-21T06:36:39.740Z,3.900000095
2023-01-21T06:37:40.162Z,6.099999905
2023-01-21T06:38:40.687Z,4.599999905
2023-01-21T06:39:41.069Z,4
2023-01-21T06:40:41.634Z,4.199999809
2023-01-21T06:41:42.708Z,3.599999905
2023-01-21T06:42:43.227Z,3.700000048
2023-01-21T06:43:44.521Z,3.200000048
2023-01-21T06:44:44.981Z,3.5
2023-01-21T06:45:45.447Z,5.5
2023-01-21T06:46:55.861Z,4.099999905
2023-01-21T06:47:46.375Z,4.699999809
2023-01-21T06:48:46.795Z,4.599999905
2023-01-21T06:49:47.180Z,3.799999952
2023-01-21T06:50:47.794Z,6.199999809
2023-01-21T06:51:48.186Z,4
2023-01-21T06:52:48.729Z,5.599999905
2023-01-21T06:53:49.707Z,4.099999905
2023-01-21T06:54:51.100Z,3.900000095
2023-01-21T06:55:51.544Z,3.900000095
2023-01-21T06:56:51.966Z,4.800000191
2023-01-21T06:57:52.543Z,4.099999905
2023-01-21T06:58:52.925Z,3.299999952
2023-01-21T06:59:53.449Z,5.699999809
2023-01-21T07:00:53.974Z,4.300000191
2023-01-21T07:01:55.615Z,3.700000048
2023-01-21T07:02:55.955Z,4.300000191
2023-01-21T07:03:57.130Z,2.900000095
2023-01-21T07:05:28.014Z,4.900000095
2023-01-21T07:06:28.548Z,3.700000048
2023-01-21T07:07:29.109Z,5.300000191
2023-01-21T07:08:29.462Z,4.599999905
2023-01-21T07:09:29.964Z,3.599999905
2023-01-21T07:10:30.359Z,3.200000048
2023-01-21T07:11:30.755Z,3.700000048
2023-01-21T07:12:31.323Z,3.900000095
2023-01-21T07:13:32.515Z,4.5
2023-01-21T07:14:33.004Z,5.5
2023-01-21T07:15:33.380Z,4.400000095
2023-01-21T07:16:33.771Z,4
2023-01-21T07:17:34.281Z,3.099999905
2023-01-21T07:18:35.514Z,3.900000095
2023-01-21T07:19:36.004Z,4.599999905
2023-01-21T07:20:36.374Z,5.099999905
2023-01-21T07:21:36.780Z,4.5
2023-01-21T07:22:37.243Z,5.099999905
2023-01-21T07:23:38.505Z,3.799999952
2023-01-21T07:24:38.974Z,5.599999905
2023-01-21T07:25:39.358Z,5
2023-01-21T07:26:39.773Z,5.599999905
2023-01-21T07:27:40.196Z,4.5
2023-01-21T07:28:40.713Z,3.5
2023-01-21T07:29:41.168Z,3.5
2023-01-21T07:30:42.591Z,3.099999905
2023-01-21T07:31:42.967Z,5
2023-01-21T07:32:43.377Z,5
2023-01-21T07:33:43.741Z,4
2023-01-21T07:34:44.175Z,3.299999952
2023-01-21T07:35:44.538Z,4.400000095
2023-01-21T07:36:44.936Z,4.5
2023-01-21T07:37:45.395Z,4.300000191
2023-01-21T07:38:45.792Z,3.700000048
2023-01-21T07:39:46.310Z,4.900000095
2023-01-21T07:40:46.697Z,4.199999809
2023-01-21T07:41:47.190Z,3.5
2023-01-21T07:42:47.681Z,3.200000048
2023-01-21T07:43:49.012Z,3.299999952
2023-01-21T07:44:49.622Z,4.5
2023-01-21T07:45:50.000Z,7.099999905
2023-01-21T07:46:50.611Z,3.400000095
2023-01-21T07:47:51.021Z,5.099999905
2023-01-21T07:48:51.380Z,3.700000048
2023-01-21T07:49:51.975Z,6.300000191
2023-01-21T07:50:52.376Z,5.199999809
2023-01-21T07:51:52.882Z,4
2023-01-21T07:52:53.298Z,4.199999809
2023-01-21T07:53:54.386Z,5
2023-01-21T07:54:54.810Z,5.599999905
2023-01-21T07:55:56.241Z,6.900000095
2023-01-21T07:56:57.164Z,7.699999809
2023-01-21T07:58:27.765Z,9.699999809
2023-01-21T07:59:28.202Z,5.199999809
2023-01-21T08:00:28.629Z,6.400000095
2023-01-21T08:01:30.103Z,5.800000191
2023-01-21T08:02:30.559Z,7.900000095
2023-01-21T08:03:30.870Z,9.699999809
2023-01-21T08:04:32.230Z,5.800000191
2023-01-21T08:05:32.644Z,5.099999905
2023-01-21T08:06:33.167Z,5.699999809
2023-01-21T08:07:33.619Z,7.099999905
2023-01-21T08:08:34.073Z,4.800000191
2023-01-21T08:09:34.668Z,5.199999809
2023-01-21T08:10:35.059Z,6.199999809
2023-01-21T08:11:35.464Z,6.900000095
2023-01-21T08:12:36.060Z,7.400000095
2023-01-21T08:13:36.481Z,4.199999809
2023-01-21T08:14:37.705Z,4.699999809
2023-01-21T08:15:38.179Z,5.199999809
2023-01-21T08:16:38.641Z,6.5
2023-01-21T08:17:39.029Z,4.800000191
2023-01-21T08:18:39.469Z,4.599999905
2023-01-21T08:19:39.836Z,7
2023-01-21T08:20:40.212Z,4.900000095
2023-01-21T08:21:40.755Z,3.900000095
2023-01-21T08:22:41.226Z,5.5
2023-01-21T08:23:42.495Z,5.199999809
2023-01-21T08:24:42.887Z,4.800000191
2023-01-21T08:25:44.245Z,4
2023-01-21T08:26:44.655Z,4
2023-01-21T08:27:45.142Z,5.300000191
2023-01-21T08:28:45.529Z,4.800000191
2023-01-21T08:29:46.012Z,4.5
2023-01-21T08:30:46.474Z,4.300000191
2023-01-21T08:31:47.577Z,5.400000095
2023-01-21T08:32:48.092Z,6.900000095
2023-01-21T08:33:48.474Z,5.199999809
2023-01-21T08:34:48.878Z,3.400000095
2023-01-21T08:35:49.293Z,3.799999952
2023-01-21T08:36:49.704Z,3.299999952
2023-01-21T08:37:50.116Z,4
2023-01-21T08:38:50.511Z,4.800000191
2023-01-21T08:39:50.906Z,4.099999905
2023-01-21T08:40:51.335Z,4.599999905
2023-01-21T08:41:51.772Z,3.400000095
2023-01-21T08:42:52.325Z,6
2023-01-21T08:43:52.728Z,7.599999905
2023-01-21T08:44:53.703Z,4.699999809
2023-01-21T08:45:54.185Z,4.599999905
2023-01-21T08:46:54.604Z,6.699999809
2023-01-21T08:47:55.176Z,7.900000095
2023-01-21T08:48:55.629Z,6.400000095
2023-01-21T08:49:56.041Z,6.900000095
2023-01-21T08:51:27.100Z,6.900000095
2023-01-21T08:52:27.494Z,8.600000381
2023-01-21T08:53:27.869Z,7.300000191
2023-01-21T08:54:29.187Z,6.300000191
2023-01-21T08:55:30.493Z,5
2023-01-21T08:56:31.078Z,7
2023-01-21T08:57:31.503Z,6.400000095
2023-01-21T08:58:31.847Z,5.599999905
2023-01-21T08:59:32.427Z,6.699999809
2023-01-21T09:00:32.807Z,7.199999809
2023-01-21T09:01:33.332Z,7.099999905
2023-01-21T09:02:33.874Z,5.5
2023-01-21T09:03:34.311Z,7.400000095
2023-01-21T09:04:35.483Z,4.099999905
2023-01-21T09:05:35.922Z,8.199999809
2023-01-21T09:06:36.499Z,9.199999809
2023-01-21T09:07:37.003Z,4.900000095
2023-01-21T09:08:37.411Z,4.5
2023-01-21T09:09:38.005Z,4.400000095
2023-01-21T09:10:38.391Z,4.800000191
2023-01-21T09:11:38.861Z,5.699999809
2023-01-21T09:12:39.379Z,5.800000191
2023-01-21T09:13:39.830Z,7.400000095
2023-01-21T09:14:41.499Z,28.89999962
2023-01-21T09:15:41.893Z,31.60000038
2023-01-21T09:16:42.468Z,15
2023-01-21T09:17:42.959Z,6.300000191
2023-01-21T09:18:43.372Z,6.800000191
2023-01-21T09:19:43.968Z,5.400000095
2023-01-21T09:20:44.362Z,6.5
2023-01-21T09:21:44.880Z,4.199999809
2023-01-21T09:22:45.359Z,4.400000095
2023-01-21T09:23:46.510Z,6.199999809
2023-01-21T09:24:47.660Z,3.799999952
2023-01-21T09:25:48.132Z,5.400000095
2023-01-21T09:26:48.564Z,6.5
2023-01-21T09:27:49.104Z,6.099999905
2023-01-21T09:28:49.507Z,7.900000095
2023-01-21T09:29:50.010Z,5.300000191
2023-01-21T09:30:50.429Z,6.199999809
2023-01-21T09:31:50.851Z,6.800000191
2023-01-21T09:32:52.271Z,7.400000095
2023-01-21T09:33:52.634Z,4.900000095
2023-01-21T09:34:53.878Z,7.199999809
2023-01-21T09:35:54.313Z,6.800000191
2023-01-21T09:36:54.719Z,6.099999905
2023-01-21T09:37:55.366Z,5.5
2023-01-21T09:39:26.309Z,6.699999809
2023-01-21T09:40:26.961Z,6.800000191
2023-01-21T09:41:27.368Z,5
2023-01-21T09:42:27.955Z,5.699999809
2023-01-21T09:43:28.417Z,4.900000095
2023-01-21T09:44:29.502Z,4.699999809
2023-01-21T09:45:30.148Z,4.800000191
2023-01-21T09:46:30.557Z,5.599999905
2023-01-21T09:47:31.044Z,6.199999809
2023-01-21T09:48:31.403Z,5.599999905
2023-01-21T09:49:31.829Z,5.900000095
2023-01-21T09:50:32.372Z,7
2023-01-21T09:51:32.832Z,6.300000191
2023-01-21T09:52:33.259Z,9.899999619
2023-01-21T09:53:33.869Z,5.5
2023-01-21T09:54:35.001Z,6.199999809
2023-01-21T09:55:35.559Z,8.399999619
2023-01-21T09:56:36.012Z,9.300000191
2023-01-21T09:57:36.583Z,6.300000191
2023-01-21T09:58:37.015Z,9.399999619
2023-01-21T09:59:37.431Z,6.900000095
2023-01-21T10:00:37.957Z,7.400000095
2023-01-21T10:01:38.365Z,7.5
2023-01-21T10:02:39.996Z,6.800000191
2023-01-21T10:03:40.640Z,7.5
2023-01-21T10:04:41.135Z,7.300000191
2023-01-21T10:05:41.602Z,5.599999905
2023-01-21T10:06:42.004Z,7.5
2023-01-21T10:07:42.508Z,5.5
2023-01-21T10:08:43.084Z,4.599999905
2023-01-21T10:09:43.484Z,5.5
2023-01-21T10:10:43.964Z,8.100000381
2023-01-21T10:11:46.138Z,6.300000191
2023-01-21T10:12:44.791Z,6.800000191
2023-01-21T10:13:45.256Z,8.600000381
2023-01-21T10:14:45.666Z,7.300000191
2023-01-21T10:15:46.098Z,7.5
2023-01-21T10:16:46.601Z,8.199999809
2023-01-21T10:17:46.882Z,7.800000191
2023-01-21T10:18:47.413Z,7.199999809
2023-01-21T10:19:47.918Z,7.800000191
2023-01-21T10:20:48.636Z,7.599999905
2023-01-21T10:21:49.023Z,11.10000038
2023-01-21T10:22:49.425Z,6
2023-01-21T10:23:49.943Z,19.20000076
2023-01-21T10:24:50.404Z,7.800000191
2023-01-21T10:25:51.650Z,7.800000191
2023-01-21T10:26:52.122Z,6.800000191
2023-01-21T10:27:52.535Z,10.19999981
2023-01-21T10:28:53.058Z,9.699999809
2023-01-21T10:29:53.505Z,8.199999809
2023-01-21T10:30:54.042Z,8
2023-01-21T10:31:54.499Z,9.699999809
2023-01-21T10:33:25.910Z,12.10000038
2023-01-21T10:34:26.295Z,8.899999619
2023-01-21T10:35:27.727Z,9.199999809
2023-01-21T10:36:28.199Z,9.100000381
2023-01-21T10:37:28.621Z,8.300000191
2023-01-21T10:38:29.029Z,10.60000038
2023-01-21T10:39:29.548Z,10.39999962
2023-01-21T10:40:29.915Z,8.5
2023-01-21T10:41:30.497Z,8.800000191
2023-01-21T10:42:31.075Z,8.300000191
2023-01-21T10:43:31.600Z,12.60000038
2023-01-21T10:44:32.017Z,8.5
2023-01-21T10:45:33.173Z,9.699999809
2023-01-21T10:46:33.744Z,7.5
2023-01-21T10:47:34.238Z,10.69999981
2023-01-21T10:48:35.508Z,10.39999962
2023-01-21T10:49:36.025Z,8.600000381
2023-01-21T10:50:36.423Z,11.10000038
2023-01-21T10:51:36.847Z,10.19999981
2023-01-21T10:52:37.329Z,9.600000381
2023-01-21T10:53:38.516Z,10.5
2023-01-21T10:54:38.951Z,10.19999981
2023-01-21T10:55:40.168Z,12.10000038
2023-01-21T10:56:40.775Z,17.5
2023-01-21T10:57:41.299Z,10.89999962
2023-01-21T10:58:41.733Z,12.10000038
2023-01-21T10:59:42.164Z,9.399999619
2023-01-21T11:00:42.547Z,11.19999981
2023-01-21T11:01:42.976Z,12.39999962
2023-01-21T11:02:44.059Z,16.20000076
2023-01-21T11:03:44.439Z,11.39999962
2023-01-21T11:04:45.017Z,9.100000381
2023-01-21T11:05:45.412Z,10
2023-01-21T11:06:45.819Z,12.60000038
2023-01-21T11:07:46.361Z,12.39999962
2023-01-21T11:08:47.542Z,10.30000019
2023-01-21T11:09:47.934Z,10.89999962
2023-01-21T11:10:48.321Z,30.89999962
2023-01-21T11:11:48.694Z,23.60000038
2023-01-21T11:12:49.155Z,74.90000153
2023-01-21T11:13:49.610Z,28.60000038
2023-01-21T11:14:51.070Z,21.70000076
2023-01-21T11:15:52.571Z,46.90000153
2023-01-21T11:16:52.869Z,46.5
2023-01-21T11:17:53.404Z,19.29999924
2023-01-21T11:18:54.491Z,24.39999962
2023-01-21T11:20:25.161Z,19.89999962
2023-01-21T11:21:25.558Z,38.90000153
2023-01-21T11:22:26.018Z,39.09999847
2023-01-21T11:23:26.570Z,20.10000038
2023-01-21T11:24:28.007Z,18.39999962
2023-01-21T11:25:28.496Z,16.89999962
2023-01-21T11:26:28.959Z,25.79999924
2023-01-21T11:27:29.332Z,25.39999962
2023-01-21T11:28:30.780Z,27.39999962
2023-01-21T11:29:31.246Z,20.89999962
2023-01-21T11:30:48.740Z,25.60000038
2023-01-21T11:31:32.344Z,32.29999924
2023-01-21T11:32:32.632Z,21.5
2023-01-21T11:33:33.763Z,63